Time;durP1;ratioP1;P1;durP2;ratioP2;P2;SDS_P1;SDS_P2;PMS_P1;PMS_P2;Temp;Humidity;BMP_temperature;BMP_pressure;BME280_temperature;BME280_humidity;BME280_pressure;Samples;Min_cycle;Max_cycle;Signal;HPM_P1;HPM_P2
2022/08/13 00:02:19;;;;;;;1.27;1.17;;;18.80;52.20;;;;;;4951885;28;20039;-63
2022/08/13 00:04:55;;;;;;;1.60;1.20;;;18.80;52.30;;;;;;4953140;28;20043;-63
2022/08/13 00:07:21;;;;;;;1.08;0.98;;;18.80;52.20;;;;;;4950437;28;21058;-63
2022/08/13 00:09:46;;;;;;;2.65;1.40;;;18.80;52.30;;;;;;4953719;28;20242;-63
2022/08/13 00:15:21;;;;;;;1.48;1.23;;;18.90;52.40;;;;;;4947754;28;20062;-63
2022/08/13 00:17:51;;;;;;;1.85;1.27;;;18.90;52.60;;;;;;4948987;28;20039;-61
2022/08/13 00:20:22;;;;;;;4.53;1.23;;;18.90;52.20;;;;;;4952778;28;20074;-63
2022/08/13 00:22:58;;;;;;;1.42;1.10;;;18.90;52.50;;;;;;4946859;28;20470;-63
2022/08/13 00:25:24;;;;;;;1.63;1.25;;;18.90;52.30;;;;;;4949274;28;20039;-63
2022/08/13 00:27:57;;;;;;;2.00;1.17;;;18.90;52.40;;;;;;4955287;28;20033;-64
2022/08/13 00:30:33;;;;;;;1.27;1.17;;;18.90;52.50;;;;;;4954163;28;20043;-63
2022/08/13 00:33:01;;;;;;;1.38;1.15;;;18.90;52.80;;;;;;4954704;28;20031;-63
2022/08/13 00:35:27;;;;;;;2.08;1.30;;;18.80;52.50;;;;;;4956413;28;20042;-63
2022/08/13 00:37:56;;;;;;;1.90;1.30;;;18.80;52.50;;;;;;4952837;28;20411;-63
2022/08/13 00:40:31;;;;;;;1.30;1.20;;;18.80;52.50;;;;;;4951039;28;20035;-63
2022/08/13 00:43:02;;;;;;;5.72;1.30;;;18.70;53.00;;;;;;4928402;28;20091;-64
2022/08/13 00:45:32;;;;;;;1.40;1.30;;;18.70;52.80;;;;;;4947400;28;20122;-63
2022/08/13 00:50:50;;;;;;;1.63;1.52;;;18.70;52.70;;;;;;4950899;28;20534;-64
2022/08/13 00:53:23;;;;;;;1.85;1.30;;;18.70;53.10;;;;;;4947462;28;20398;-64
2022/08/13 00:55:55;;;;;;;2.47;1.40;;;18.60;53.00;;;;;;4951564;28;20046;-64
2022/08/13 00:58:22;;;;;;;1.65;1.50;;;18.60;53.10;;;;;;4951473;28;20658;-63
2022/08/13 01:00:57;;;;;;;1.52;1.42;;;18.60;53.30;;;;;;4946281;28;20097;-63
2022/08/13 01:03:39;;;;;;;;;;;;;;;;;;;;;
2022/08/13 01:06:07;;;;;;;1.63;1.52;;;18.50;53.30;;;;;;4939216;28;20770;-63
2022/08/13 01:08:34;;;;;;;1.52;1.42;;;18.50;53.50;;;;;;4948920;28;20769;-63
2022/08/13 01:11:11;;;;;;;1.50;1.40;;;18.50;53.70;;;;;;4950230;28;20050;-63
2022/08/13 01:13:42;;;;;;;1.90;1.33;;;18.40;54.30;;;;;;4950401;28;20047;-64
2022/08/13 01:16:14;;;;;;;4.45;1.63;;;18.30;53.60;;;;;;4951463;28;20035;-63
2022/08/13 01:18:45;;;;;;;2.65;1.38;;;18.20;53.90;;;;;;4943281;28;20703;-70
2022/08/13 01:21:17;;;;;;;1.50;1.40;;;18.20;54.20;;;;;;4952032;28;20062;-70
2022/08/13 01:23:46;;;;;;;1.75;1.65;;;18.10;54.30;;;;;;4947408;28;20404;-69
2022/08/13 01:26:22;;;;;;;1.70;1.60;;;18.00;54.50;;;;;;4948627;28;20094;-69
2022/08/13 01:28:52;;;;;;;3.70;1.50;;;18.00;55.00;;;;;;4944946;28;20481;-72
2022/08/13 01:31:23;;;;;;;1.70;1.60;;;17.90;54.90;;;;;;4950266;28;20296;-69
2022/08/13 01:33:59;;;;;;;1.60;1.50;;;17.80;55.00;;;;;;4947139;28;20050;-68
2022/08/13 01:36:32;;;;;;;1.73;1.55;;;17.70;55.50;;;;;;4950025;28;20134;-67
2022/08/13 01:39:07;;;;;;;24.75;2.67;;;17.70;55.20;;;;;;4948910;28;20109;-66
2022/08/13 01:41:44;;;;;;;3.83;2.22;;;17.60;55.20;;;;;;4952178;28;20395;-68
2022/08/13 01:44:14;;;;;;;10.55;2.38;;;17.60;55.20;;;;;;4948722;28;20248;-68
2022/08/13 01:52:37;;;;;;;3.38;1.58;;;17.50;56.00;;;;;;4952355;28;20049;-68
2022/08/13 01:55:06;;;;;;;2.75;1.52;;;17.50;55.50;;;;;;4949604;28;20113;-63
2022/08/13 01:57:40;;;;;;;1.77;1.67;;;17.50;56.00;;;;;;4951112;28;20039;-69
2022/08/13 02:00:08;;;;;;;2.05;1.85;;;17.50;56.10;;;;;;4922858;28;20039;-68
2022/08/13 02:02:34;;;;;;;2.20;1.45;;;17.50;56.00;;;;;;4954356;28;20031;-68
2022/08/13 02:04:59;;;;;;;1.67;1.45;;;17.50;55.90;;;;;;4953085;28;20034;-66
2022/08/13 02:07:28;;;;;;;2.78;1.80;;;17.50;55.90;;;;;;4957299;28;20035;-70
2022/08/13 02:09:53;;;;;;;1.58;1.42;;;17.50;56.10;;;;;;4953603;28;20553;-69
2022/08/13 02:12:19;;;;;;;1.73;1.48;;;17.50;56.40;;;;;;4946511;28;20134;-70
2022/08/13 02:14:47;;;;;;;1.92;1.70;;;17.40;56.50;;;;;;4957231;28;20039;-69
2022/08/13 02:17:25;;;;;;;2.58;1.58;;;17.40;56.50;;;;;;4927927;28;20046;-69
2022/08/13 02:19:55;;;;;;;1.88;1.77;;;17.40;56.40;;;;;;4949590;28;20677;-66
2022/08/13 02:22:24;;;;;;;1.80;1.70;;;17.30;57.60;;;;;;4956940;28;20300;-66
2022/08/13 02:24:52;;;;;;;1.90;1.65;;;17.20;57.40;;;;;;4957130;28;20043;-68
2022/08/13 02:27:22;;;;;;;5.53;2.00;;;17.10;56.70;;;;;;4958627;28;20118;-68
2022/08/13 02:29:55;;;;;;;1.85;1.75;;;17.00;56.90;;;;;;4953232;28;20080;-62
2022/08/13 02:32:25;;;;;;;1.83;1.73;;;16.90;57.40;;;;;;4953591;28;20043;-63
2022/08/13 02:34:52;;;;;;;3.75;1.80;;;16.80;57.10;;;;;;4952641;28;20242;-60
2022/08/13 02:37:21;;;;;;;2.20;2.00;;;16.70;57.30;;;;;;4953582;28;20398;-62
2022/08/13 02:39:51;;;;;;;2.55;2.08;;;16.60;57.90;;;;;;4951453;28;20038;-63
2022/08/13 02:42:20;;;;;;;1.90;1.77;;;16.50;58.20;;;;;;4918464;28;20043;-62
2022/08/13 02:44:47;;;;;;;3.25;2.00;;;16.30;58.10;;;;;;4951162;28;20035;-61
2022/08/13 02:47:18;;;;;;;1.67;1.58;;;16.20;58.60;;;;;;4949760;28;20309;-62
2022/08/13 02:49:44;;;;;;;2.15;1.95;;;16.20;58.90;;;;;;4949684;28;20066;-64
2022/08/13 02:52:17;;;;;;;3.92;2.08;;;16.10;59.00;;;;;;4945768;28;20635;-63
2022/08/13 02:54:46;;;;;;;2.40;2.20;;;16.00;59.40;;;;;;4949162;28;20043;-63
2022/08/13 02:57:11;;;;;;;2.40;2.20;;;15.90;59.70;;;;;;4948521;28;20043;-62
2022/08/13 02:59:43;;;;;;;3.13;2.20;;;15.80;59.80;;;;;;4949399;28;20109;-63
2022/08/13 03:02:10;;;;;;;2.60;2.40;;;15.80;60.30;;;;;;4949375;28;20118;-63
2022/08/13 03:04:40;;;;;;;3.38;2.05;;;15.70;60.20;;;;;;4948089;28;21634;-63
2022/08/13 03:07:18;;;;;;;2.45;2.22;;;15.70;60.60;;;;;;4947730;28;20210;-60
2022/08/13 03:09:43;;;;;;;2.28;2.10;;;15.60;61.50;;;;;;4950544;28;20037;-62
2022/08/13 03:12:13;;;;;;;3.70;2.15;;;15.50;60.60;;;;;;4942700;28;20042;-62
2022/08/13 03:14:43;;;;;;;2.25;2.10;;;15.50;60.80;;;;;;4950712;28;20439;-63
2022/08/13 03:17:11;;;;;;;2.00;1.90;;;15.50;61.00;;;;;;4949009;28;20042;-63
2022/08/13 03:19:37;;;;;;;2.13;1.92;;;15.50;61.20;;;;;;4950332;28;20039;-63
2022/08/13 03:22:08;;;;;;;2.50;2.15;;;15.40;61.20;;;;;;4947676;28;21779;-63
2022/08/13 03:24:33;;;;;;;3.05;2.15;;;15.40;61.70;;;;;;4951448;28;20129;-63
2022/08/13 03:27:10;;;;;;;;;;;;;;;;;;;;;
2022/08/13 03:29:50;;;;;;;2.22;2.05;;;15.40;61.50;;;;;;4949539;28;20035;-63
2022/08/13 03:32:19;;;;;;;3.33;2.00;;;15.40;61.70;;;;;;4948423;28;20980;-61
2022/08/13 03:34:45;;;;;;;2.53;2.20;;;15.40;61.30;;;;;;4948044;28;20640;-61
2022/08/13 03:37:11;;;;;;;1.95;1.83;;;15.30;61.20;;;;;;4944618;28;20677;-61
2022/08/13 03:39:37;;;;;;;2.08;1.98;;;15.30;61.50;;;;;;4951508;28;20043;-63
2022/08/13 03:42:02;;;;;;;2.30;2.10;;;15.30;61.70;;;;;;4949866;28;20691;-63
2022/08/13 03:44:31;;;;;;;2.35;2.15;;;15.30;61.90;;;;;;4949986;28;20126;-62
2022/08/13 03:46:57;;;;;;;2.28;2.00;;;15.30;62.10;;;;;;4949516;28;20058;-63
2022/08/13 03:49:24;;;;;;;2.50;2.30;;;15.10;61.70;;;;;;4949100;28;20504;-63
2022/08/13 03:51:50;;;;;;;2.03;1.92;;;15.30;62.20;;;;;;4948591;28;20051;-61
2022/08/13 03:54:21;;;;;;;2.90;1.95;;;15.30;62.30;;;;;;4946431;28;20054;-62
2022/08/13 03:56:46;;;;;;;2.10;2.00;;;15.40;62.30;;;;;;4948336;28;20040;-62
2022/08/13 03:59:13;;;;;;;6.07;2.08;;;15.40;62.10;;;;;;4951231;28;20035;-61
2022/08/13 04:01:39;;;;;;;3.30;2.00;;;15.40;62.10;;;;;;4953220;28;20444;-62
2022/08/13 04:04:05;;;;;;;2.50;1.80;;;15.50;62.00;;;;;;4949326;28;20150;-62
2022/08/13 04:06:31;;;;;;;2.20;2.00;;;15.50;61.80;;;;;;4953956;28;20121;-63
2022/08/13 04:08:59;;;;;;;2.05;1.95;;;15.50;61.80;;;;;;4950048;28;20045;-61
2022/08/13 04:11:25;;;;;;;2.10;1.90;;;15.50;61.50;;;;;;4951220;28;20038;-62
2022/08/13 04:13:54;;;;;;;2.00;1.90;;;15.40;62.60;;;;;;4957415;28;20093;-62
2022/08/13 04:16:27;;;;;;;1.98;1.88;;;15.40;61.90;;;;;;4956389;28;21536;-62
2022/08/13 04:18:54;;;;;;;2.10;2.00;;;15.40;61.70;;;;;;4950065;28;20074;-62
2022/08/13 04:21:28;;;;;;;2.65;2.08;;;15.40;61.80;;;;;;4957922;28;20355;-62
2022/08/13 04:23:54;;;;;;;2.50;2.30;;;15.40;62.00;;;;;;4955754;28;20507;-62
2022/08/13 04:26:23;;;;;;;2.28;2.17;;;15.40;61.90;;;;;;4955990;28;20083;-62
2022/08/13 04:28:50;;;;;;;2.38;2.28;;;15.40;62.10;;;;;;4956785;28;20388;-62
2022/08/13 04:31:19;;;;;;;2.50;2.40;;;15.50;62.30;;;;;;4955375;28;20039;-63
2022/08/13 04:33:45;;;;;;;2.30;2.20;;;15.50;63.40;;;;;;4957326;28;20491;-61
2022/08/13 04:36:14;;;;;;;2.63;2.38;;;15.50;62.30;;;;;;4954648;28;20054;-63
2022/08/13 04:38:39;;;;;;;2.53;2.33;;;15.50;62.40;;;;;;4954786;28;20035;-63
2022/08/13 04:41:10;;;;;;;2.30;2.00;;;15.50;62.30;;;;;;4953899;28;20034;-63
2022/08/13 04:43:54;;;;;;;3.58;2.50;;;15.50;62.70;;;;;;4956508;28;20553;-61
2022/08/13 04:46:19;;;;;;;2.80;2.60;;;15.50;63.20;;;;;;4956582;28;20069;-62
2022/08/13 04:48:45;;;;;;;2.60;2.35;;;15.50;62.40;;;;;;4955216;28;20487;-62
2022/08/13 04:51:14;;;;;;;4.05;2.75;;;15.60;62.50;;;;;;4958884;28;20094;-63
2022/08/13 04:53:42;;;;;;;3.33;2.78;;;15.60;62.60;;;;;;4956469;28;20045;-64
2022/08/13 04:56:12;;;;;;;3.83;3.30;;;15.60;62.90;;;;;;4955582;28;20054;-63
2022/08/13 04:58:38;;;;;;;3.17;2.35;;;15.60;62.90;;;;;;4955732;28;20446;-63
2022/08/13 05:01:09;;;;;;;6.97;2.90;;;15.60;62.80;;;;;;4956740;28;20038;-62
2022/08/13 05:03:39;;;;;;;4.53;3.05;;;15.60;62.90;;;;;;4957883;28;20047;-61
2022/08/13 05:06:05;;;;;;;4.28;2.65;;;15.60;63.10;;;;;;4956193;28;20043;-63
2022/08/13 05:08:39;;;;;;;3.20;2.90;;;15.60;63.30;;;;;;4953922;28;20027;-62
2022/08/13 05:11:06;;;;;;;3.22;2.92;;;15.60;63.30;;;;;;4944912;28;20094;-63
2022/08/13 05:13:38;;;;;;;3.30;3.08;;;15.60;63.30;;;;;;4951255;28;20038;-62
2022/08/13 05:16:08;;;;;;;3.28;2.97;;;15.60;64.10;;;;;;4950339;28;20078;-63
2022/08/13 05:18:38;;;;;;;3.60;3.30;;;15.60;64.00;;;;;;4948864;28;20042;-62
2022/08/13 05:21:09;;;;;;;3.35;3.05;;;15.60;64.30;;;;;;4954137;28;20200;-61
2022/08/13 05:23:36;;;;;;;3.05;2.85;;;15.60;64.30;;;;;;4952379;28;20050;-62
2022/08/13 05:26:02;;;;;;;3.38;3.10;;;15.60;64.40;;;;;;4951873;28;20070;-63
2022/08/13 05:28:34;;;;;;;3.35;3.05;;;15.50;64.60;;;;;;4949763;28;20069;-61
2022/08/13 05:31:00;;;;;;;3.05;2.75;;;15.50;65.00;;;;;;4952605;28;20050;-62
2022/08/13 05:33:29;;;;;;;3.70;3.22;;;15.50;65.30;;;;;;4950768;28;20636;-61
2022/08/13 05:35:58;;;;;;;4.18;2.92;;;15.50;65.70;;;;;;4951603;28;20035;-63
2022/08/13 05:38:26;;;;;;;6.70;3.00;;;15.60;65.50;;;;;;4949976;28;20043;-61
2022/08/13 05:41:00;;;;;;;3.83;3.03;;;15.70;65.30;;;;;;4953385;28;20043;-62
2022/08/13 05:43:29;;;;;;;4.72;2.78;;;15.70;65.90;;;;;;4949328;28;20063;-62
2022/08/13 05:45:58;;;;;;;3.00;2.80;;;15.80;65.80;;;;;;4951030;28;20515;-62
2022/08/13 05:48:28;;;;;;;3.03;2.83;;;15.90;66.00;;;;;;4948602;28;20050;-61
2022/08/13 05:51:03;;;;;;;6.15;2.70;;;16.00;66.20;;;;;;4951125;28;20126;-64
2022/08/13 05:53:32;;;;;;;2.90;2.55;;;16.10;66.10;;;;;;4949888;28;20046;-62
2022/08/13 05:55:58;;;;;;;3.75;2.83;;;16.10;65.70;;;;;;4949072;28;20606;-64
2022/08/13 05:58:24;;;;;;;4.85;2.97;;;16.30;66.00;;;;;;4950044;28;20518;-64
2022/08/13 06:03:36;;;;;;;3.80;3.05;;;16.40;65.60;;;;;;4950432;28;20552;-61
2022/08/13 06:06:07;;;;;;;7.22;3.10;;;16.50;65.30;;;;;;4953929;28;20198;-63
2022/08/13 06:08:42;;;;;;;4.70;2.63;;;16.60;65.50;;;;;;4950755;28;20034;-63
2022/08/13 06:11:16;;;;;;;3.22;2.92;;;16.80;65.70;;;;;;4945800;28;20529;-63
2022/08/13 06:13:48;;;;;;;3.03;2.73;;;16.80;65.50;;;;;;4950150;28;20039;-63
2022/08/13 06:16:18;;;;;;;3.00;2.65;;;16.90;65.00;;;;;;4948665;28;20042;-62
2022/08/13 06:18:48;;;;;;;2.85;2.65;;;17.00;65.10;;;;;;4949135;28;20077;-63
2022/08/13 06:21:16;;;;;;;2.95;2.72;;;17.10;65.20;;;;;;4949767;28;20034;-63
2022/08/13 06:23:45;;;;;;;3.03;2.70;;;17.20;65.00;;;;;;4947634;28;20090;-63
2022/08/13 06:26:14;;;;;;;3.80;2.67;;;17.30;64.90;;;;;;4952588;28;20073;-63
2022/08/13 06:28:41;;;;;;;2.72;2.53;;;17.40;64.90;;;;;;4946232;28;20467;-63
2022/08/13 06:31:16;;;;;;;3.00;2.47;;;17.50;64.50;;;;;;4953054;28;20093;-62
2022/08/13 06:33:43;;;;;;;2.80;2.60;;;17.60;64.70;;;;;;4951224;28;20041;-63
2022/08/13 06:36:15;;;;;;;2.70;2.50;;;17.70;64.20;;;;;;4946955;28;20043;-63
2022/08/13 06:38:48;;;;;;;2.97;2.67;;;17.70;64.10;;;;;;4946884;28;20035;-62
2022/08/13 06:41:15;;;;;;;3.53;2.20;;;17.90;64.00;;;;;;4952392;28;20140;-63
2022/08/13 06:43:49;;;;;;;2.75;2.55;;;17.90;63.60;;;;;;4946413;28;20031;-63
2022/08/13 06:46:18;;;;;;;2.17;2.08;;;18.00;63.50;;;;;;4947402;28;20044;-63
2022/08/13 06:48:43;;;;;;;3.40;2.67;;;18.10;63.10;;;;;;4951325;28;20106;-62
2022/08/13 06:51:12;;;;;;;2.60;2.40;;;18.20;62.90;;;;;;4952565;28;20498;-63
2022/08/13 06:53:40;;;;;;;2.33;2.20;;;18.20;62.80;;;;;;4951219;28;20039;-63
2022/08/13 06:56:14;;;;;;;5.35;2.33;;;18.30;62.50;;;;;;4949516;28;20535;-62
2022/08/13 06:58:43;;;;;;;3.15;2.33;;;18.40;62.40;;;;;;4949272;28;20498;-62
2022/08/13 07:01:19;;;;;;;2.50;2.30;;;18.50;62.20;;;;;;4948188;28;20035;-63
2022/08/13 07:03:46;;;;;;;3.55;2.22;;;18.60;62.00;;;;;;4949892;28;20047;-63
2022/08/13 07:06:26;;;;;;;2.83;2.53;;;18.70;61.70;;;;;;4947741;28;20031;-62
2022/08/13 07:08:57;;;;;;;3.00;2.67;;;18.70;61.80;;;;;;4947591;28;20058;-62
2022/08/13 07:11:32;;;;;;;2.30;2.20;;;18.80;61.50;;;;;;4943749;28;20054;-61
2022/08/13 07:13:59;;;;;;;;;;;18.80;61.70;;;;;;4945568;28;20090;-63
2022/08/13 07:16:30;;;;;;;2.60;2.40;;;18.90;61.60;;;;;;4951867;28;19944;-62
2022/08/13 07:19:00;;;;;;;2.40;2.20;;;19.00;61.20;;;;;;4950504;28;20119;-60
2022/08/13 07:21:30;;;;;;;2.22;2.00;;;19.10;61.20;;;;;;4948960;28;20113;-64
2022/08/13 07:23:57;;;;;;;2.53;2.30;;;19.10;61.20;;;;;;4951244;28;20036;-63
2022/08/13 07:26:33;;;;;;;3.15;2.47;;;19.20;60.90;;;;;;4950773;28;20126;-63
2022/08/13 07:29:04;;;;;;;3.72;2.40;;;19.40;60.70;;;;;;4948159;28;20040;-62
2022/08/13 07:31:41;;;;;;;3.22;2.22;;;19.50;60.30;;;;;;4952817;28;20038;-63
2022/08/13 07:34:12;;;;;;;2.35;2.15;;;19.60;60.10;;;;;;4952751;28;20047;-63
2022/08/13 07:36:40;;;;;;;2.95;1.80;;;19.70;60.10;;;;;;4951648;28;20541;-61
2022/08/13 07:39:12;;;;;;;2.35;1.85;;;19.90;59.60;;;;;;4952433;28;20047;-61
2022/08/13 07:41:47;;;;;;;1.80;1.70;;;19.90;59.40;;;;;;4955402;28;20075;-63
2022/08/13 07:44:20;;;;;;;4.70;1.73;;;20.10;59.40;;;;;;4953522;28;20027;-64
2022/08/13 07:46:48;;;;;;;1.70;1.60;;;20.10;58.90;;;;;;4952803;28;20042;-63
2022/08/13 07:49:14;;;;;;;2.03;1.83;;;20.20;58.50;;;;;;4941623;28;20483;-63
2022/08/13 07:51:43;;;;;;;1.98;1.73;;;20.30;58.30;;;;;;4944213;28;20146;-63
2022/08/13 07:54:10;;;;;;;17.92;2.75;;;20.40;58.20;;;;;;4949618;28;20043;-61
2022/08/13 07:56:37;;;;;;;14.50;2.20;;;20.40;58.00;;;;;;4954869;28;20046;-63
2022/08/13 07:59:17;;;;;;;2.15;1.75;;;20.50;58.00;;;;;;4951960;28;20043;-61
2022/08/13 08:01:59;;;;;;;2.40;1.67;;;20.50;58.70;;;;;;4948856;28;20094;-60
2022/08/13 08:04:25;;;;;;;2.20;1.80;;;20.60;57.90;;;;;;4952242;28;20039;-62
2022/08/13 08:06:51;;;;;;;1.42;1.33;;;20.70;57.50;;;;;;4952184;28;20043;-61
2022/08/13 08:09:33;;;;;;;1.52;1.17;;;20.80;57.20;;;;;;4956260;28;20038;-62
2022/08/13 08:14:53;;;;;;;6.63;1.42;;;20.90;56.30;;;;;;4955653;28;20039;-63
2022/08/13 08:17:19;;;;;;;1.63;1.35;;;20.90;56.50;;;;;;4955861;28;20081;-60
2022/08/13 08:19:50;;;;;;;1.63;1.17;;;21.00;56.50;;;;;;4956948;28;20031;-62
2022/08/13 08:22:17;;;;;;;2.67;1.00;;;21.10;56.10;;;;;;4958381;28;20322;-62
2022/08/13 08:24:49;;;;;;;2.17;1.20;;;21.20;55.80;;;;;;4955389;28;20059;-62
2022/08/13 08:27:16;;;;;;;1.20;1.10;;;21.30;55.20;;;;;;4956273;28;20111;-63
2022/08/13 08:29:44;;;;;;;1.25;1.10;;;21.40;55.00;;;;;;4957205;28;20073;-63
2022/08/13 08:32:14;;;;;;;0.95;0.93;;;21.60;55.00;;;;;;4955146;28;20031;-62
2022/08/13 08:34:46;;;;;;;1.02;1.02;;;21.70;54.40;;;;;;4953689;28;20033;-63
2022/08/13 08:43:01;;;;;;;1.30;0.90;;;22.10;53.60;;;;;;4953455;28;20695;-62
2022/08/13 08:45:28;;;;;;;2.47;0.80;;;22.20;53.50;;;;;;4956617;28;20444;-62
2022/08/13 08:47:56;;;;;;;1.17;1.00;;;22.30;53.30;;;;;;4954775;28;20033;-62
2022/08/13 08:50:26;;;;;;;1.38;1.27;;;22.40;53.00;;;;;;4956969;28;20039;-62
2022/08/13 08:55:38;;;;;;;1.02;1.00;;;22.70;52.70;;;;;;4957101;28;20455;-63
2022/08/13 08:58:11;;;;;;;1.45;1.05;;;22.80;52.70;;;;;;4953992;28;20031;-62
2022/08/13 09:00:37;;;;;;;2.85;1.20;;;23.00;52.20;;;;;;4955684;28;20039;-61
2022/08/13 09:03:17;;;;;;;1.40;1.13;;;23.10;52.00;;;;;;4954079;28;20028;-62
2022/08/13 09:05:45;;;;;;;1.10;1.00;;;23.30;51.70;;;;;;4940174;28;20024;-62
2022/08/13 09:08:29;;;;;;;4.13;0.93;;;23.40;51.80;;;;;;4955463;28;20035;-63
2022/08/13 09:10:59;;;;;;;2.28;1.20;;;23.50;51.20;;;;;;4951247;28;20047;-62
2022/08/13 09:13:25;;;;;;;0.93;0.93;;;23.60;50.90;;;;;;4953764;28;20038;-61
2022/08/13 09:15:57;;;;;;;3.35;1.20;;;23.70;51.00;;;;;;4956907;28;20039;-62
2022/08/13 09:18:23;;;;;;;1.38;1.17;;;23.80;50.70;;;;;;4953290;28;20042;-62
2022/08/13 09:20:52;;;;;;;2.75;1.15;;;23.90;50.30;;;;;;4952726;28;20064;-63
2022/08/13 09:23:18;;;;;;;2.85;1.13;;;24.10;50.10;;;;;;4952245;28;20045;-62
2022/08/13 09:25:50;;;;;;;1.45;1.20;;;24.10;50.00;;;;;;4951028;28;20039;-61
2022/08/13 09:28:23;;;;;;;1.13;1.02;;;24.30;50.00;;;;;;4949565;28;20039;-63
2022/08/13 09:30:55;;;;;;;1.88;1.30;;;24.40;49.40;;;;;;4949121;28;20051;-62
2022/08/13 09:33:22;;;;;;;3.08;1.20;;;24.50;49.20;;;;;;4951894;28;20513;-63
2022/08/13 09:35:50;;;;;;;0.93;0.93;;;24.60;49.70;;;;;;4952781;28;20035;-63
2022/08/13 09:38:21;;;;;;;2.38;1.23;;;24.70;49.60;;;;;;4952140;28;20054;-62
2022/08/13 09:40:59;;;;;;;0.90;0.90;;;24.80;48.20;;;;;;4949417;28;20039;-60
2022/08/13 09:43:36;;;;;;;1.60;1.20;;;24.90;48.00;;;;;;4953080;28;20391;-63
2022/08/13 09:46:04;;;;;;;1.00;1.00;;;25.00;47.80;;;;;;4954451;28;20090;-63
2022/08/13 09:48:29;;;;;;;3.28;1.35;;;25.00;47.80;;;;;;4952017;28;20125;-63
2022/08/13 09:50:58;;;;;;;1.60;1.17;;;25.20;47.90;;;;;;4955081;28;20503;-63
2022/08/13 09:53:25;;;;;;;1.85;1.25;;;25.20;47.40;;;;;;4944088;28;20566;-64
2022/08/13 09:55:57;;;;;;;2.85;1.55;;;25.30;47.30;;;;;;4944119;28;20789;-63
2022/08/13 09:58:23;;;;;;;2.13;1.40;;;25.50;47.10;;;;;;4952813;28;20039;-63
2022/08/13 10:00:50;;;;;;;1.20;1.10;;;25.50;46.60;;;;;;4953260;28;20090;-62
2022/08/13 10:03:19;;;;;;;1.90;1.15;;;25.60;46.40;;;;;;4953645;28;20028;-62
2022/08/13 10:05:47;;;;;;;1.38;1.02;;;25.70;45.90;;;;;;4960358;28;20092;-63
2022/08/13 10:08:17;;;;;;;1.42;0.98;;;25.80;46.20;;;;;;4960249;28;20041;-63
2022/08/13 10:10:46;;;;;;;3.50;1.13;;;25.90;44.90;;;;;;4953783;28;20438;-62
2022/08/13 10:13:13;;;;;;;1.27;0.90;;;25.90;44.90;;;;;;4955409;28;20035;-61
2022/08/13 10:15:41;;;;;;;4.40;1.35;;;26.00;44.60;;;;;;4957019;28;20031;-63
2022/08/13 10:18:10;;;;;;;2.08;1.10;;;26.10;44.50;;;;;;4957885;28;20035;-63
2022/08/13 10:20:40;;;;;;;2.78;0.90;;;26.10;44.60;;;;;;4955308;28;20069;-63
2022/08/13 10:23:11;;;;;;;1.90;1.25;;;26.20;44.20;;;;;;4956821;28;20035;-63
2022/08/13 10:25:37;;;;;;;1.67;0.85;;;26.20;43.50;;;;;;4958434;28;20031;-61
2022/08/13 10:28:34;;;;;;;0.95;0.90;;;26.30;44.00;;;;;;4957680;28;20403;-62
2022/08/13 10:31:07;;;;;;;1.38;0.85;;;26.30;43.10;;;;;;4958243;28;20142;-62
2022/08/13 10:33:34;;;;;;;0.77;0.77;;;26.40;42.80;;;;;;4957656;28;20523;-63
2022/08/13 10:36:03;;;;;;;0.80;0.80;;;26.50;43.10;;;;;;4956767;28;20494;-62
2022/08/13 10:38:29;;;;;;;0.80;0.80;;;26.50;43.10;;;;;;4956031;28;20141;-63
2022/08/13 10:40:56;;;;;;;1.35;1.20;;;26.50;43.00;;;;;;4951528;28;20039;-62
2022/08/13 10:43:26;;;;;;;0.80;0.80;;;26.60;42.60;;;;;;4950778;28;20112;-62
2022/08/13 10:45:56;;;;;;;1.45;1.10;;;26.60;42.50;;;;;;4953461;28;20117;-63
2022/08/13 10:48:25;;;;;;;0.75;0.75;;;26.70;42.20;;;;;;4950171;28;20534;-63
2022/08/13 10:50:52;;;;;;;1.50;0.90;;;26.70;41.90;;;;;;4929559;28;20963;-63
2022/08/13 10:56:11;;;;;;;3.45;0.90;;;26.80;41.60;;;;;;4951821;28;20114;-63
2022/08/13 10:58:37;;;;;;;4.53;1.05;;;26.80;40.40;;;;;;4947147;28;20054;-64
2022/08/13 11:01:05;;;;;;;3.22;1.17;;;26.90;41.20;;;;;;4953199;28;20039;-63
2022/08/13 11:03:44;;;;;;;0.95;0.82;;;26.90;41.00;;;;;;4950450;28;20034;-63
2022/08/13 11:06:27;;;;;;;1.00;0.90;;;26.90;40.60;;;;;;4950601;28;20411;-63
2022/08/13 11:09:06;;;;;;;1.63;0.80;;;27.00;40.10;;;;;;4956023;28;20565;-63
2022/08/13 11:11:37;;;;;;;2.05;0.90;;;27.00;40.00;;;;;;4946919;28;20055;-63
2022/08/13 11:14:06;;;;;;;0.70;0.70;;;27.10;40.50;;;;;;4952703;28;20506;-63
2022/08/13 11:19:16;;;;;;;0.82;0.82;;;27.20;39.90;;;;;;4955398;28;20035;-63
2022/08/13 11:21:47;;;;;;;0.85;0.80;;;27.20;39.70;;;;;;4937808;28;20131;-63
2022/08/13 11:24:13;;;;;;;1.10;0.95;;;27.30;39.30;;;;;;4956475;28;20078;-63
2022/08/13 11:26:42;;;;;;;1.70;0.90;;;27.30;39.10;;;;;;4954994;28;20042;-62
2022/08/13 11:29:07;;;;;;;1.65;0.82;;;27.30;39.30;;;;;;4954435;28;20443;-62
2022/08/13 11:31:33;;;;;;;2.78;0.90;;;27.40;39.00;;;;;;4953694;28;20047;-60
2022/08/13 11:34:04;;;;;;;2.75;0.80;;;27.40;38.70;;;;;;4952120;28;20553;-62
2022/08/13 11:36:32;;;;;;;1.17;0.90;;;27.40;37.70;;;;;;4953947;28;20115;-61
2022/08/13 11:39:11;;;;;;;0.98;0.88;;;27.50;38.20;;;;;;4953047;28;20130;-62
2022/08/13 11:41:37;;;;;;;0.73;0.73;;;27.50;38.50;;;;;;4952482;28;20035;-60
2022/08/13 11:44:02;;;;;;;1.48;0.90;;;27.60;38.40;;;;;;4954825;28;20094;-62
2022/08/13 11:46:31;;;;;;;0.93;0.80;;;27.60;38.00;;;;;;4954182;28;20038;-59
2022/08/13 11:49:05;;;;;;;0.80;0.80;;;27.70;38.00;;;;;;4955078;28;20086;-61
2022/08/13 11:51:31;;;;;;;;;;;27.70;37.90;;;;;;4952358;28;20071;-62
2022/08/13 11:53:57;;;;;;;0.60;0.60;;;27.70;38.80;;;;;;4951842;28;20012;-62
2022/08/13 11:56:26;;;;;;;0.80;0.80;;;27.80;38.50;;;;;;4951863;28;20043;-63
2022/08/13 11:58:51;;;;;;;1.42;0.75;;;27.80;38.40;;;;;;4952792;28;20324;-62
2022/08/13 12:01:25;;;;;;;4.30;0.85;;;27.80;38.20;;;;;;4953071;28;20157;-62
2022/08/13 12:03:53;;;;;;;2.35;0.70;;;27.80;38.10;;;;;;4952687;28;20045;-63
2022/08/13 12:06:25;;;;;;;2.10;0.90;;;27.90;38.10;;;;;;4954958;28;20392;-62
2022/08/13 12:08:58;;;;;;;0.88;0.80;;;27.90;37.80;;;;;;4951876;28;20317;-63
2022/08/13 12:11:24;;;;;;;0.60;0.60;;;27.90;38.00;;;;;;4946761;28;20051;-63
2022/08/13 12:13:49;;;;;;;0.80;0.70;;;28.00;37.50;;;;;;4953668;28;20234;-62
2022/08/13 12:16:15;;;;;;;2.25;0.80;;;28.00;37.40;;;;;;4952539;28;20297;-63
2022/08/13 12:18:41;;;;;;;2.67;0.60;;;28.00;37.00;;;;;;4947810;28;20631;-62
2022/08/13 12:21:12;;;;;;;0.80;0.80;;;28.00;36.60;;;;;;4951135;28;20515;-61
2022/08/13 12:23:38;;;;;;;0.75;0.70;;;28.00;36.30;;;;;;4948687;28;20067;-62
2022/08/13 12:26:06;;;;;;;0.75;0.65;;;28.10;36.70;;;;;;4955600;28;20069;-62
2022/08/13 12:28:32;;;;;;;1.55;0.95;;;28.10;36.90;;;;;;4950105;28;20059;-63
2022/08/13 12:31:07;;;;;;;0.60;0.60;;;28.10;36.80;;;;;;4955392;28;20070;-62
2022/08/13 12:33:38;;;;;;;1.33;0.90;;;28.10;36.20;;;;;;4949486;28;20054;-63
2022/08/13 12:36:04;;;;;;;0.85;0.82;;;28.20;36.80;;;;;;4955080;28;20106;-62
2022/08/13 12:38:35;;;;;;;2.28;0.95;;;28.20;37.00;;;;;;4951656;28;20035;-62
2022/08/13 12:41:01;;;;;;;0.80;0.80;;;28.20;36.60;;;;;;4954199;28;20410;-62
2022/08/13 12:43:29;;;;;;;2.15;0.90;;;28.20;36.90;;;;;;4951817;28;20080;-62
2022/08/13 12:45:57;;;;;;;0.80;0.80;;;28.10;36.90;;;;;;4953913;28;20118;-62
2022/08/13 12:48:29;;;;;;;1.02;1.00;;;28.20;36.80;;;;;;4951543;28;20039;-62
2022/08/13 12:50:54;;;;;;;1.60;1.00;;;28.20;36.50;;;;;;4937829;28;20046;-62
2022/08/13 12:53:23;;;;;;;2.40;0.80;;;28.20;36.70;;;;;;4951262;28;20323;-62
2022/08/13 12:55:49;;;;;;;1.20;0.82;;;28.20;37.10;;;;;;4951928;28;20039;-62
2022/08/13 12:58:20;;;;;;;1.10;1.00;;;28.30;37.80;;;;;;4950801;28;20034;-62
2022/08/13 13:00:52;;;;;;;1.42;0.90;;;28.30;36.60;;;;;;4947971;28;20043;-62
2022/08/13 13:03:18;;;;;;;1.58;1.00;;;28.40;36.90;;;;;;4955910;28;20534;-60
2022/08/13 13:05:46;;;;;;;0.95;0.68;;;28.40;36.50;;;;;;4955562;28;20034;-62
2022/08/13 13:08:33;;;;;;;0.70;0.70;;;28.40;36.30;;;;;;4948335;28;20150;-62
2022/08/13 13:11:05;;;;;;;3.22;0.95;;;28.40;35.90;;;;;;4946449;28;20122;-61
2022/08/13 13:13:35;;;;;;;0.80;0.80;;;28.40;35.70;;;;;;4954374;28;20086;-62
2022/08/13 13:16:08;;;;;;;1.77;0.93;;;28.30;36.20;;;;;;4956090;28;20035;-63
2022/08/13 13:18:39;;;;;;;0.90;0.80;;;28.30;36.40;;;;;;4953202;28;20027;-62
2022/08/13 13:21:16;;;;;;;0.98;0.70;;;28.30;36.50;;;;;;4955284;28;20043;-62
2022/08/13 13:23:47;;;;;;;0.80;0.80;;;28.30;35.90;;;;;;4952574;28;20051;-63
2022/08/13 13:26:15;;;;;;;1.33;1.02;;;28.30;35.90;;;;;;4954539;28;20582;-60
2022/08/13 13:28:44;;;;;;;1.10;0.95;;;28.30;36.00;;;;;;4949911;28;20066;-62
2022/08/13 13:31:09;;;;;;;2.15;0.88;;;28.30;35.90;;;;;;4950060;28;20586;-63
2022/08/13 13:33:38;;;;;;;2.13;0.80;;;28.30;35.60;;;;;;4949721;28;20041;-62
2022/08/13 13:36:15;;;;;;;0.73;0.65;;;28.30;35.70;;;;;;4953566;28;20065;-62